createdAt,value
2018-09-18T00:00:44.713Z,19.96
2018-09-18T00:03:14.181Z,19.91
2018-09-18T00:05:43.557Z,19.87
2018-09-18T00:08:12.749Z,19.86
2018-09-18T00:10:41.934Z,19.77
2018-09-18T00:13:11.115Z,19.70
2018-09-18T00:15:40.085Z,19.82
2018-09-18T00:18:09.300Z,19.76
2018-09-18T00:20:38.269Z,19.85
2018-09-18T00:23:07.357Z,19.77
2018-09-18T00:25:36.982Z,19.80
2018-09-18T00:28:06.087Z,19.93
2018-09-18T00:30:35.272Z,19.85
2018-09-18T00:33:04.437Z,19.82
2018-09-18T00:35:33.412Z,19.85
2018-09-18T00:38:02.645Z,19.80
2018-09-18T00:40:31.767Z,19.78
2018-09-18T00:43:01.647Z,19.78
2018-09-18T00:45:30.639Z,19.79
2018-09-18T00:47:59.776Z,19.65
2018-09-18T00:50:29.069Z,19.48
2018-09-18T00:52:58.875Z,19.58
2018-09-18T00:55:27.826Z,19.44
2018-09-18T00:57:56.810Z,19.51
2018-09-18T01:00:25.998Z,19.64
2018-09-18T01:02:54.986Z,19.67
2018-09-18T01:05:24.229Z,19.51
2018-09-18T01:07:53.194Z,19.39
2018-09-18T01:10:22.391Z,19.43
2018-09-18T01:12:51.771Z,19.41
2018-09-18T01:15:21.181Z,19.41
2018-09-18T01:17:50.164Z,19.35
2018-09-18T01:20:19.581Z,19.33
2018-09-18T01:22:48.529Z,19.41
2018-09-18T01:25:17.557Z,19.37
2018-09-18T01:27:46.529Z,19.36
2018-09-18T01:30:15.710Z,19.45
2018-09-18T01:32:44.887Z,19.55
2018-09-18T01:35:13.851Z,19.45
2018-09-18T01:37:42.790Z,19.45
2018-09-18T01:40:11.778Z,19.38
2018-09-18T01:42:40.751Z,19.31
2018-09-18T01:45:09.739Z,19.32
2018-09-18T01:47:38.734Z,19.33
2018-09-18T01:50:07.714Z,19.55
2018-09-18T01:52:36.671Z,19.40
2018-09-18T01:55:05.630Z,19.41
2018-09-18T01:57:34.650Z,19.31
2018-09-18T02:00:03.707Z,19.38
2018-09-18T02:02:32.878Z,19.37
2018-09-18T02:05:01.821Z,19.44
2018-09-18T02:07:31.006Z,19.46
2018-09-18T02:09:59.957Z,19.47
2018-09-18T02:12:28.915Z,19.45
2018-09-18T02:14:57.967Z,19.35
2018-09-18T02:17:26.927Z,19.33
2018-09-18T02:19:56.913Z,19.35
2018-09-18T02:22:25.899Z,19.31
2018-09-18T02:24:55.290Z,19.30
2018-09-18T02:27:24.494Z,19.41
2018-09-18T02:29:53.475Z,19.46
2018-09-18T02:32:22.430Z,19.47
2018-09-18T02:34:51.626Z,19.47
2018-09-18T02:37:20.569Z,19.35
2018-09-18T02:39:49.786Z,19.40
2018-09-18T02:42:19.495Z,19.36
2018-09-18T02:44:48.666Z,19.38
2018-09-18T02:47:18.034Z,19.24
2018-09-18T02:49:47.397Z,19.23
2018-09-18T02:52:16.418Z,19.16
2018-09-18T02:54:45.614Z,19.02
2018-09-18T02:57:14.610Z,19.01
2018-09-18T02:59:43.597Z,18.98
2018-09-18T03:02:12.846Z,19.10
2018-09-18T03:04:41.805Z,19.01
2018-09-18T03:07:10.785Z,19.08
2018-09-18T03:09:39.755Z,18.89
2018-09-18T03:12:09.201Z,18.98
2018-09-18T03:14:38.181Z,18.96
2018-09-18T03:17:07.159Z,19.05
2018-09-18T03:19:36.374Z,19.20
2018-09-18T03:22:05.332Z,19.15
2018-09-18T03:24:34.302Z,19.18
2018-09-18T03:27:03.516Z,19.17
2018-09-18T03:29:32.542Z,19.23
2018-09-18T03:32:01.756Z,19.07
2018-09-18T03:34:37.048Z,18.91
2018-09-18T03:37:06.234Z,18.91
2018-09-18T03:39:35.418Z,19.02
2018-09-18T03:42:04.592Z,18.94
2018-09-18T03:44:33.631Z,18.98
2018-09-18T03:47:03.274Z,18.93
2018-09-18T03:49:32.489Z,18.93
2018-09-18T03:52:01.486Z,18.83
2018-09-18T03:54:30.436Z,18.93
2018-09-18T03:56:59.397Z,19.00
2018-09-18T03:59:28.567Z,18.89
2018-09-18T04:01:57.747Z,18.91
2018-09-18T04:04:26.938Z,18.34
2018-09-18T04:06:56.026Z,17.51
2018-09-18T04:09:24.995Z,18.09
2018-09-18T04:11:53.954Z,17.71
2018-09-18T04:14:22.934Z,18.13
2018-09-18T04:16:51.902Z,18.15
2018-09-18T04:19:21.118Z,17.31
2018-09-18T04:21:50.314Z,17.71
2018-09-18T04:24:19.283Z,17.79
2018-09-18T04:26:48.250Z,17.22
2018-09-18T04:29:17.580Z,17.90
2018-09-18T04:31:46.554Z,18.46
2018-09-18T04:34:15.938Z,18.80
2018-09-18T04:36:44.921Z,18.84
2018-09-18T04:39:14.165Z,18.77
2018-09-18T04:41:43.134Z,18.87
2018-09-18T04:44:12.106Z,18.87
2018-09-18T04:46:41.098Z,18.69
2018-09-18T04:49:10.114Z,18.69
2018-09-18T04:51:39.090Z,18.55
2018-09-18T04:54:08.061Z,18.56
2018-09-18T04:56:37.030Z,18.64
2018-09-18T04:59:06.138Z,18.82
2018-09-18T05:01:35.366Z,18.84
2018-09-18T05:04:04.968Z,18.76
2018-09-18T05:06:33.980Z,18.86
2018-09-18T05:09:02.977Z,18.84
2018-09-18T05:11:32.206Z,18.71
2018-09-18T05:14:01.777Z,18.85
2018-09-18T05:16:31.017Z,18.78
2018-09-18T05:19:00.006Z,18.73
2018-09-18T05:21:29.257Z,18.69
2018-09-18T05:23:58.234Z,18.79
2018-09-18T05:26:27.217Z,18.90
2018-09-18T05:28:56.299Z,18.92
2018-09-18T05:31:25.444Z,19.01
2018-09-18T05:33:54.641Z,18.87
2018-09-18T05:36:24.036Z,18.98
2018-09-18T05:38:53.574Z,19.04
2018-09-18T05:41:22.577Z,19.07
2018-09-18T05:43:51.834Z,19.14
2018-09-18T05:46:20.854Z,19.30
2018-09-18T05:48:49.998Z,19.35
2018-09-18T05:51:19.003Z,19.16
2018-09-18T05:53:48.225Z,18.80
2018-09-18T05:56:17.221Z,19.35
2018-09-18T05:58:46.410Z,18.70
2018-09-18T06:01:15.843Z,18.28
2018-09-18T06:03:45.022Z,18.67
2018-09-18T06:06:14.019Z,19.00
2018-09-18T06:08:43.455Z,19.29
2018-09-18T06:11:12.465Z,18.86
2018-09-18T06:13:41.437Z,19.31
2018-09-18T06:16:10.810Z,19.27
2018-09-18T06:18:39.818Z,19.82
2018-09-18T06:21:08.770Z,19.53
2018-09-18T06:23:37.825Z,18.98
2018-09-18T06:26:07.074Z,19.63
2018-09-18T06:28:36.293Z,19.81
2018-09-18T06:31:05.261Z,20.08
2018-09-18T06:33:34.441Z,20.15
2018-09-18T06:36:03.471Z,19.65
2018-09-18T06:38:32.464Z,20.01
2018-09-18T06:41:01.447Z,19.98
2018-09-18T06:43:30.467Z,19.95
2018-09-18T06:45:59.714Z,19.47
2018-09-18T06:48:28.702Z,19.97
2018-09-18T06:50:57.979Z,19.57
2018-09-18T06:53:26.989Z,20.12
2018-09-18T06:55:56.026Z,20.63
2018-09-18T06:58:25.074Z,20.44
2018-09-18T07:00:54.218Z,20.62
2018-09-18T07:03:24.321Z,20.57
2018-09-18T07:05:53.809Z,20.64
2018-09-18T07:08:23.654Z,20.04
2018-09-18T07:10:53.180Z,20.24
2018-09-18T07:13:22.485Z,20.45
2018-09-18T07:15:51.550Z,20.62
2018-09-18T07:18:20.585Z,20.41
2018-09-18T07:20:49.624Z,20.42
2018-09-18T07:23:18.618Z,20.53
2018-09-18T07:25:47.615Z,20.41
2018-09-18T07:28:17.074Z,20.90
2018-09-18T07:30:46.084Z,20.84
2018-09-18T07:33:15.801Z,20.73
2018-09-18T07:35:44.895Z,21.18
2018-09-18T07:38:14.278Z,20.70
2018-09-18T07:40:44.110Z,21.08
2018-09-18T07:43:14.034Z,20.52
2018-09-18T07:45:43.807Z,21.08
2018-09-18T07:48:12.997Z,21.15
2018-09-18T07:50:42.096Z,21.31
2018-09-18T07:53:11.395Z,21.53
2018-09-18T07:55:40.565Z,21.15
2018-09-18T07:58:09.648Z,21.17
2018-09-18T08:00:39.597Z,21.22
2018-09-18T08:03:09.148Z,21.68
2018-09-18T08:05:38.155Z,21.97
2018-09-18T08:08:07.396Z,21.79
2018-09-18T08:10:36.461Z,21.89
2018-09-18T08:13:05.786Z,22.26
2018-09-18T08:15:34.975Z,22.37
2018-09-18T08:18:04.299Z,22.30
2018-09-18T08:20:33.277Z,22.32
2018-09-18T08:23:02.258Z,21.65
2018-09-18T08:25:31.283Z,21.99
2018-09-18T08:28:00.248Z,22.73
2018-09-18T08:30:29.630Z,21.85
2018-09-18T08:32:58.902Z,22.46
2018-09-18T08:35:34.359Z,22.82
2018-09-18T08:38:03.719Z,22.91
2018-09-18T08:40:32.963Z,22.88
2018-09-18T08:43:02.309Z,23.25
2018-09-18T08:45:31.374Z,22.84
2018-09-18T08:48:00.474Z,22.76
2018-09-18T08:50:29.809Z,23.02
2018-09-18T08:52:59.460Z,23.53
2018-09-18T08:55:29.362Z,23.60
2018-09-18T08:57:58.704Z,23.78
2018-09-18T09:00:28.043Z,23.74
2018-09-18T09:02:58.570Z,23.62
2018-09-18T09:05:27.751Z,23.87
2018-09-18T09:07:56.953Z,23.06
2018-09-18T09:10:26.067Z,23.45
2018-09-18T09:12:55.129Z,24.01
2018-09-18T09:15:24.146Z,24.10
2018-09-18T09:17:53.255Z,23.78
2018-09-18T09:20:22.242Z,24.16
2018-09-18T09:22:51.291Z,24.28
2018-09-18T09:25:20.330Z,24.13
2018-09-18T09:27:49.399Z,24.11
2018-09-18T09:30:18.348Z,24.46
2018-09-18T09:32:47.662Z,24.34
2018-09-18T09:35:16.704Z,24.56
2018-09-18T09:37:45.767Z,24.60
2018-09-18T09:40:15.072Z,24.51
2018-09-18T09:42:44.182Z,24.47
2018-09-18T09:45:13.450Z,24.68
2018-09-18T09:47:42.633Z,24.61
2018-09-18T09:50:11.710Z,24.43
2018-09-18T09:52:40.751Z,24.48
2018-09-18T09:55:09.935Z,24.93
2018-09-18T09:57:39.503Z,24.90
2018-09-18T10:00:13.373Z,24.70
2018-09-18T10:02:47.740Z,25.16
2018-09-18T10:05:18.231Z,25.26
2018-09-18T10:07:47.521Z,25.36
2018-09-18T10:10:16.684Z,25.43
2018-09-18T10:12:45.931Z,25.20
2018-09-18T10:15:15.376Z,25.30
2018-09-18T10:17:44.369Z,25.74
2018-09-18T10:20:13.685Z,25.47
2018-09-18T10:22:42.998Z,25.86
2018-09-18T10:25:12.092Z,25.69
2018-09-18T10:27:41.110Z,25.58
2018-09-18T10:30:10.369Z,25.45
2018-09-18T10:32:39.359Z,25.95
2018-09-18T10:35:08.376Z,26.05
2018-09-18T10:37:37.368Z,25.89
2018-09-18T10:40:06.414Z,26.15
2018-09-18T10:42:35.412Z,25.99
2018-09-18T10:45:05.276Z,25.80
2018-09-18T10:47:34.891Z,26.17
2018-09-18T10:50:03.908Z,26.18
2018-09-18T10:52:33.314Z,26.39
2018-09-18T10:55:02.621Z,26.28
2018-09-18T10:57:31.638Z,26.55
2018-09-18T11:00:00.724Z,26.44
2018-09-18T11:02:31.931Z,26.77
2018-09-18T11:05:01.679Z,26.84
2018-09-18T11:07:30.730Z,26.68
2018-09-18T11:09:59.974Z,26.65
2018-09-18T11:12:29.392Z,26.72
2018-09-18T11:14:58.658Z,26.96
2018-09-18T11:17:27.658Z,26.95
2018-09-18T11:19:57.066Z,26.86
2018-09-18T11:22:26.312Z,27.23
2018-09-18T11:24:55.573Z,27.15
2018-09-18T11:27:24.637Z,27.21
2018-09-18T11:29:53.644Z,27.17
2018-09-18T11:32:22.847Z,27.34
2018-09-18T11:34:51.813Z,27.34
2018-09-18T11:37:20.838Z,27.43
2018-09-18T11:39:49.942Z,27.61
2018-09-18T11:42:18.939Z,27.27
2018-09-18T11:44:47.953Z,27.27
2018-09-18T11:47:17.133Z,27.39
2018-09-18T11:49:46.130Z,27.38
2018-09-18T11:52:15.430Z,27.36
2018-09-18T11:54:44.698Z,27.42
2018-09-18T11:57:14.183Z,27.54
2018-09-18T11:59:43.130Z,27.65
2018-09-18T12:02:12.327Z,27.85
2018-09-18T12:04:41.613Z,27.63
2018-09-18T12:07:10.832Z,27.36
2018-09-18T12:09:39.854Z,27.33
2018-09-18T12:12:09.267Z,27.47
2018-09-18T12:14:38.250Z,27.54
2018-09-18T12:17:07.580Z,27.87
2018-09-18T12:19:36.514Z,27.94
2018-09-18T12:22:05.728Z,27.85
2018-09-18T12:24:34.731Z,27.81
2018-09-18T12:27:03.955Z,27.79
2018-09-18T12:29:33.138Z,27.91
2018-09-18T12:32:02.119Z,28.18
2018-09-18T12:34:31.147Z,28.14
2018-09-18T12:37:00.124Z,28.13
2018-09-18T12:39:29.114Z,28.25
2018-09-18T12:41:58.574Z,28.22
2018-09-18T12:44:27.470Z,28.27
2018-09-18T12:46:56.470Z,28.24
2018-09-18T12:49:25.743Z,28.49
2018-09-18T12:51:54.558Z,28.35
2018-09-18T12:54:23.887Z,28.31
2018-09-18T12:56:52.897Z,28.32
2018-09-18T12:59:21.942Z,28.53
2018-09-18T13:01:50.916Z,28.31
2018-09-18T13:04:19.915Z,28.37
2018-09-18T13:06:49.499Z,28.46
2018-09-18T13:09:18.427Z,28.57
2018-09-18T13:11:47.406Z,28.52
2018-09-18T13:14:16.544Z,28.40
2018-09-18T13:16:45.637Z,28.65
2018-09-18T13:19:14.612Z,28.38
2018-09-18T13:21:43.884Z,28.34
2018-09-18T13:24:12.968Z,28.40
2018-09-18T13:26:42.213Z,28.54
2018-09-18T13:29:11.277Z,28.35
2018-09-18T13:31:40.305Z,28.41
2018-09-18T13:34:09.261Z,28.69
2018-09-18T13:36:38.349Z,28.63
2018-09-18T13:39:08.334Z,28.64
2018-09-18T13:41:37.655Z,28.50
2018-09-18T13:44:06.964Z,28.38
2018-09-18T13:46:36.500Z,28.44
2018-09-18T13:49:05.384Z,28.59
2018-09-18T13:51:34.362Z,28.64
2018-09-18T13:54:03.158Z,28.50
2018-09-18T13:56:32.218Z,28.44
2018-09-18T13:59:01.348Z,28.67
2018-09-18T14:01:30.734Z,28.47
2018-09-18T14:03:59.682Z,28.48
2018-09-18T14:06:29.142Z,28.38
2018-09-18T14:08:58.151Z,28.54
2018-09-18T14:11:27.416Z,28.66
2018-09-18T14:13:56.630Z,28.75
2018-09-18T14:16:25.621Z,28.58
2018-09-18T14:18:54.634Z,28.69
2018-09-18T14:21:23.971Z,28.51
2018-09-18T14:23:52.942Z,28.58
2018-09-18T14:26:22.203Z,28.71
2018-09-18T14:28:51.194Z,28.73
2018-09-18T14:31:20.390Z,28.76
2018-09-18T14:33:49.413Z,28.85
2018-09-18T14:36:18.442Z,28.91
2018-09-18T14:38:47.990Z,28.60
2018-09-18T14:41:17.262Z,28.87
2018-09-18T14:43:46.252Z,28.72
2018-09-18T14:46:15.234Z,28.83
2018-09-18T14:48:44.281Z,28.86
2018-09-18T14:51:13.447Z,28.68
2018-09-18T14:53:42.859Z,28.83
2018-09-18T14:56:12.132Z,28.49
2018-09-18T14:58:41.099Z,28.66
2018-09-18T15:01:10.141Z,28.80
2018-09-18T15:03:40.840Z,28.91
2018-09-18T15:06:11.212Z,29.03
2018-09-18T15:08:40.183Z,28.88
2018-09-18T15:11:09.679Z,28.79
2018-09-18T15:13:38.756Z,28.82
2018-09-18T15:16:08.622Z,28.74
2018-09-18T15:18:37.824Z,28.93
2018-09-18T15:21:08.498Z,28.88
2018-09-18T15:23:39.449Z,28.76
2018-09-18T15:26:08.785Z,28.77
2018-09-18T15:28:38.796Z,28.59
2018-09-18T15:31:08.118Z,28.75
2018-09-18T15:33:37.837Z,28.65
2018-09-18T15:36:07.786Z,28.71
2018-09-18T15:38:36.974Z,28.64
2018-09-18T15:41:06.118Z,28.88
2018-09-18T15:43:36.844Z,28.67
2018-09-18T15:46:08.249Z,28.71
2018-09-18T15:48:38.268Z,28.63
2018-09-18T15:51:07.264Z,28.42
2018-09-18T15:53:36.440Z,28.50
2018-09-18T15:56:05.458Z,28.52
2018-09-18T15:58:34.800Z,28.48
2018-09-18T16:01:04.071Z,28.71
2018-09-18T16:03:33.307Z,28.48
2018-09-18T16:06:02.557Z,28.28
2018-09-18T16:08:31.600Z,28.33
2018-09-18T16:11:00.910Z,28.10
2018-09-18T16:13:30.367Z,28.16
2018-09-18T16:15:59.419Z,28.41
2018-09-18T16:18:28.560Z,28.27
2018-09-18T16:20:57.850Z,28.45
2018-09-18T16:23:27.458Z,28.71
2018-09-18T16:25:56.598Z,28.63
2018-09-18T16:28:25.771Z,28.51
2018-09-18T16:30:55.436Z,28.46
2018-09-18T16:33:24.955Z,28.43
2018-09-18T16:35:55.914Z,28.26
2018-09-18T16:38:25.221Z,28.24
2018-09-18T16:41:01.537Z,27.91
2018-09-18T16:43:31.241Z,28.27
2018-09-18T16:48:47.981Z,28.06
2018-09-18T16:51:17.888Z,27.81
2018-09-18T16:53:49.901Z,28.09
2018-09-18T16:56:20.163Z,28.11
2018-09-18T16:58:49.527Z,28.00
2018-09-18T17:01:18.681Z,28.03
2018-09-18T17:03:48.274Z,28.02
2018-09-18T17:06:18.663Z,28.03
2018-09-18T17:08:48.511Z,27.76
2018-09-18T17:11:18.310Z,27.78
2018-09-18T17:13:54.089Z,27.85
2018-09-18T17:16:24.780Z,27.74
2018-09-18T17:18:54.923Z,27.42
2018-09-18T17:21:25.795Z,27.63
2018-09-18T17:23:55.808Z,27.61
2018-09-18T17:26:27.804Z,27.59
2018-09-18T17:31:59.110Z,27.47
2018-09-18T17:37:49.648Z,27.31
2018-09-18T17:40:19.194Z,27.25
2018-09-18T17:42:49.632Z,27.17
2018-09-18T17:51:14.875Z,26.61
2018-09-18T17:53:45.038Z,26.59
2018-09-18T17:56:14.234Z,26.60
2018-09-18T17:58:44.229Z,26.53
2018-09-18T18:01:13.863Z,26.36
2018-09-18T18:03:42.972Z,26.30
2018-09-18T18:06:12.108Z,26.32
2018-09-18T18:08:42.694Z,26.19
2018-09-18T18:11:12.010Z,26.12
2018-09-18T18:13:41.804Z,26.09
2018-09-18T18:16:10.942Z,26.00
2018-09-18T18:18:40.131Z,25.96
2018-09-18T18:21:09.370Z,25.80
2018-09-18T18:23:39.124Z,25.79
2018-09-18T18:26:08.325Z,25.80
2018-09-18T18:28:38.228Z,25.78
2018-09-18T18:31:07.593Z,25.75
2018-09-18T18:33:37.078Z,25.79
2018-09-18T18:36:06.372Z,25.84
2018-09-18T18:38:36.624Z,25.82
2018-09-18T18:41:07.174Z,25.77
2018-09-18T18:43:38.320Z,25.70
2018-09-18T18:46:08.673Z,25.53
2018-09-18T18:48:43.730Z,25.48
2018-09-18T18:54:05.155Z,25.46
2018-09-18T18:56:39.367Z,25.45
2018-09-18T18:59:10.688Z,25.51
2018-09-18T19:01:41.750Z,25.42
2018-09-18T19:04:11.354Z,25.39
2018-09-18T19:06:41.128Z,25.21
2018-09-18T19:09:10.784Z,25.22
2018-09-18T19:11:39.984Z,25.07
2018-09-18T19:14:09.174Z,25.12
2018-09-18T19:16:38.692Z,25.02
2018-09-18T19:19:16.730Z,24.99
2018-09-18T19:21:46.473Z,25.01
2018-09-18T19:24:16.179Z,24.91
2018-09-18T19:29:37.812Z,24.87
2018-09-18T19:32:07.310Z,24.84
2018-09-18T19:34:37.408Z,24.71
2018-09-18T19:37:06.763Z,24.71
2018-09-18T19:39:36.952Z,24.72
2018-09-18T19:42:05.965Z,24.74
2018-09-18T19:44:35.699Z,24.73
2018-09-18T19:47:13.283Z,24.71
2018-09-18T19:49:54.622Z,24.60
2018-09-18T19:52:28.775Z,24.60
2018-09-18T19:55:07.586Z,24.45
2018-09-18T19:57:36.890Z,24.59
2018-09-18T20:00:07.113Z,24.57
2018-09-18T20:02:37.679Z,24.54
2018-09-18T20:05:13.820Z,24.52
2018-09-18T20:07:44.109Z,24.45
2018-09-18T20:10:13.619Z,24.45
2018-09-18T20:12:43.673Z,24.41
2018-09-18T20:15:15.755Z,24.35
2018-09-18T20:17:45.402Z,24.42
2018-09-18T20:20:16.130Z,24.30
2018-09-18T20:22:45.992Z,24.38
2018-09-18T20:25:15.172Z,24.27
2018-09-18T20:27:44.394Z,24.29
2018-09-18T20:30:13.543Z,24.25
2018-09-18T20:32:42.662Z,24.31
2018-09-18T20:35:12.501Z,24.23
2018-09-18T20:37:41.554Z,24.31
2018-09-18T20:40:10.848Z,24.27
2018-09-18T20:42:40.232Z,24.19
2018-09-18T20:45:09.561Z,24.20
2018-09-18T20:47:38.658Z,24.10
2018-09-18T20:50:15.576Z,24.15
2018-09-18T20:52:47.485Z,24.15
2018-09-18T20:55:19.549Z,24.16
2018-09-18T20:57:48.729Z,24.15
2018-09-18T21:00:22.771Z,23.97
2018-09-18T21:02:53.608Z,24.04
2018-09-18T21:05:24.267Z,23.89
2018-09-18T21:07:55.761Z,24.04
2018-09-18T21:10:25.778Z,23.96
2018-09-18T21:12:56.633Z,24.09
2018-09-18T21:15:26.074Z,24.11
2018-09-18T21:17:55.823Z,23.93
2018-09-18T21:20:24.883Z,23.70
2018-09-18T21:22:54.400Z,23.71
2018-09-18T21:26:08.277Z,23.98
2018-09-18T21:28:37.756Z,23.89
2018-09-18T21:31:07.089Z,23.77
2018-09-18T21:33:37.633Z,22.88
2018-09-18T21:36:07.927Z,23.35
2018-09-18T21:38:38.461Z,23.31
2018-09-18T21:41:08.769Z,23.86
2018-09-18T21:43:38.473Z,23.94
2018-09-18T21:46:08.296Z,23.97
2018-09-18T21:48:39.454Z,24.03
2018-09-18T21:51:10.134Z,24.00
2018-09-18T21:53:39.658Z,24.07
2018-09-18T21:56:08.906Z,23.55
2018-09-18T21:58:39.210Z,23.99
2018-09-18T22:01:10.340Z,23.96
2018-09-18T22:03:40.553Z,23.68
2018-09-18T22:06:11.023Z,23.90
2018-09-18T22:08:41.273Z,23.84
2018-09-18T22:11:10.380Z,24.01
2018-09-18T22:13:39.574Z,23.99
2018-09-18T22:16:08.771Z,24.06
2018-09-18T22:18:37.971Z,23.80
2018-09-18T22:21:07.214Z,24.11
2018-09-18T22:23:36.439Z,24.04
2018-09-18T22:26:05.439Z,24.07
2018-09-18T22:28:34.603Z,24.06
2018-09-18T22:31:03.579Z,24.08
2018-09-18T22:33:32.613Z,24.08
2018-09-18T22:36:07.835Z,23.95
2018-09-18T22:38:37.006Z,23.89
2018-09-18T22:41:06.338Z,23.90
2018-09-18T22:43:35.352Z,23.95
2018-09-18T22:46:04.542Z,24.01
2018-09-18T22:48:33.523Z,24.01
2018-09-18T22:51:02.489Z,24.05
2018-09-18T22:53:31.657Z,24.05
2018-09-18T22:56:00.722Z,23.77
2018-09-18T22:58:29.763Z,23.86
2018-09-18T23:00:58.742Z,23.84
2018-09-18T23:03:27.855Z,23.65
2018-09-18T23:05:56.907Z,23.74
2018-09-18T23:08:26.035Z,22.82
2018-09-18T23:10:55.268Z,22.59
2018-09-18T23:13:24.469Z,22.93
2018-09-18T23:15:53.507Z,23.32
2018-09-18T23:18:22.537Z,22.97
2018-09-18T23:20:51.517Z,23.51
2018-09-18T23:23:20.812Z,23.38
2018-09-18T23:25:51.320Z,23.60
2018-09-18T23:28:20.646Z,23.38
2018-09-18T23:30:52.405Z,23.29
2018-09-18T23:33:21.400Z,22.71
2018-09-18T23:35:50.629Z,23.15
2018-09-18T23:38:19.594Z,23.04
2018-09-18T23:40:48.564Z,23.36
2018-09-18T23:43:17.988Z,23.44
2018-09-18T23:45:47.175Z,23.15
2018-09-18T23:48:16.382Z,23.40
2018-09-18T23:50:45.358Z,23.49
2018-09-18T23:53:14.325Z,23.23
2018-09-18T23:55:43.502Z,23.22
2018-09-18T23:58:12.767Z,23.28
